Time;durP1;ratioP1;P1;durP2;ratioP2;P2;SDS_P1;SDS_P2;PMS_P1;PMS_P2;Temp;Humidity;BMP_temperature;BMP_pressure;BME280_temperature;BME280_humidity;BME280_pressure;Samples;Min_cycle;Max_cycle;Signal;HPM_P1;HPM_P2
2023/03/24 00:00:20;;;;;;;0.00;0.00;;;;;;;;;;1736918;28;20246;-60
2023/03/24 00:01:12;;;;;;;0.00;0.00;;;;;;;;;;1738608;28;20468;-59
2023/03/24 00:02:03;;;;;;;0.00;0.00;;;;;;;;;;1739214;28;20564;-59
2023/03/24 00:03:00;;;;;;;0.00;0.00;;;;;;;;;;1735573;28;20643;-59
2023/03/24 00:03:51;;;;;;;0.00;0.00;;;;;;;;;;1738879;28;20274;-59
2023/03/24 00:04:43;;;;;;;0.00;0.00;;;;;;;;;;1738731;28;20796;-58
2023/03/24 00:05:34;;;;;;;0.00;0.00;;;;;;;;;;1737166;28;20285;-59
2023/03/24 00:06:26;;;;;;;0.00;0.00;;;;;;;;;;1736033;28;20203;-59
2023/03/24 00:07:18;;;;;;;0.00;0.00;;;;;;;;;;1730550;28;20559;-59
2023/03/24 00:08:10;;;;;;;0.00;0.00;;;;;;;;;;1735644;28;20530;-59
2023/03/24 00:09:05;;;;;;;0.00;0.00;;;;;;;;;;1743280;28;20222;-59
2023/03/24 00:09:57;;;;;;;0.00;0.00;;;;;;;;;;1739018;28;20742;-59
2023/03/24 00:10:49;;;;;;;0.00;0.00;;;;;;;;;;1742063;28;20272;-59
2023/03/24 00:11:41;;;;;;;0.00;0.00;;;;;;;;;;1745749;28;20215;-58
2023/03/24 00:12:32;;;;;;;0.00;0.00;;;;;;;;;;1739011;28;20260;-59
2023/03/24 00:13:25;;;;;;;0.00;0.00;;;;;;;;;;1741013;28;20238;-59
2023/03/24 00:14:17;;;;;;;0.00;0.00;;;;;;;;;;1741503;28;20590;-60
2023/03/24 00:15:10;;;;;;;0.00;0.00;;;;;;;;;;1738824;28;20196;-59
2023/03/24 00:16:01;;;;;;;0.00;0.00;;;;;;;;;;1741561;28;20241;-59
2023/03/24 00:16:57;;;;;;;0.00;0.00;;;;;;;;;;1743772;28;20290;-59
2023/03/24 00:17:49;;;;;;;0.00;0.00;;;;;;;;;;1744200;28;20940;-59
2023/03/24 00:18:41;;;;;;;0.00;0.00;;;;;;;;;;1739387;28;20290;-59
2023/03/24 00:19:32;;;;;;;0.00;0.00;;;;;;;;;;1741555;28;20218;-59
2023/03/24 00:20:25;;;;;;;0.00;0.00;;;;;;;;;;1743616;28;20664;-59
2023/03/24 00:21:17;;;;;;;0.00;0.00;;;;;;;;;;1741738;28;20251;-59
2023/03/24 00:22:13;;;;;;;0.00;0.00;;;;;;;;;;1739007;28;20214;-59
2023/03/24 00:23:04;;;;;;;0.00;0.00;;;;;;;;;;1745754;28;20207;-59
2023/03/24 00:23:57;;;;;;;0.00;0.00;;;;;;;;;;1744798;28;20305;-59
2023/03/24 00:24:48;;;;;;;0.00;0.00;;;;;;;;;;1745720;28;20625;-58
2023/03/24 00:25:40;;;;;;;0.00;0.00;;;;;;;;;;1743789;28;20258;-59
2023/03/24 00:26:33;;;;;;;0.00;0.00;;;;;;;;;;1745752;28;20311;-58
2023/03/24 00:27:29;;;;;;;0.00;0.00;;;;;;;;;;1743003;28;20756;-59
2023/03/24 00:28:20;;;;;;;0.00;0.00;;;;;;;;;;1740587;28;20266;-59
2023/03/24 00:29:12;;;;;;;0.00;0.00;;;;;;;;;;1745428;28;20298;-59
2023/03/24 00:30:04;;;;;;;0.00;0.00;;;;;;;;;;1745789;28;20261;-59
2023/03/24 00:30:55;;;;;;;0.00;0.00;;;;;;;;;;1741694;28;20304;-59
2023/03/24 00:31:47;;;;;;;0.00;0.00;;;;;;;;;;1740340;28;20836;-59
2023/03/24 00:32:39;;;;;;;0.00;0.00;;;;;;;;;;1743549;28;20430;-59
2023/03/24 00:33:31;;;;;;;0.00;0.00;;;;;;;;;;1745771;28;20214;-59
2023/03/24 00:34:24;;;;;;;0.00;0.00;;;;;;;;;;1740741;28;20702;-59
2023/03/24 00:35:16;;;;;;;0.00;0.00;;;;;;;;;;1738379;28;20211;-59
2023/03/24 00:36:10;;;;;;;0.00;0.00;;;;;;;;;;1743288;28;20202;-59
2023/03/24 00:37:03;;;;;;;0.00;0.00;;;;;;;;;;1745957;28;20210;-59
2023/03/24 00:37:54;;;;;;;0.00;0.00;;;;;;;;;;1733839;28;20211;-59
2023/03/24 00:38:47;;;;;;;0.00;0.00;;;;;;;;;;1744068;28;20210;-59
2023/03/24 00:39:38;;;;;;;0.00;0.00;;;;;;;;;;1742053;28;20234;-59
2023/03/24 00:40:30;;;;;;;0.00;0.00;;;;;;;;;;1739933;28;20239;-59
2023/03/24 00:41:25;;;;;;;0.00;0.00;;;;;;;;;;1742221;28;20293;-59
2023/03/24 00:42:18;;;;;;;0.00;0.00;;;;;;;;;;1740149;28;20655;-59
2023/03/24 00:43:09;;;;;;;0.00;0.00;;;;;;;;;;1743201;28;20223;-59
2023/03/24 00:44:04;;;;;;;0.00;0.00;;;;;;;;;;1738975;28;20227;-58
2023/03/24 00:44:55;;;;;;;0.00;0.00;;;;;;;;;;1746241;28;20596;-59
2023/03/24 00:45:47;;;;;;;0.00;0.00;;;;;;;;;;1741919;28;21991;-59
2023/03/24 00:46:38;;;;;;;0.00;0.00;;;;;;;;;;1742285;28;20223;-59
2023/03/24 00:47:35;;;;;;;0.00;0.00;;;;;;;;;;1741752;28;20245;-59
2023/03/24 00:48:26;;;;;;;0.00;0.00;;;;;;;;;;1745935;28;20817;-59
2023/03/24 00:49:32;;;;;;;0.00;0.00;;;;;;;;;;1745780;28;20203;-59
2023/03/24 00:50:25;;;;;;;0.00;0.00;;;;;;;;;;1744221;28;20737;-59
2023/03/24 00:51:17;;;;;;;0.00;0.00;;;;;;;;;;1743647;28;20206;-59
2023/03/24 00:52:08;;;;;;;0.00;0.00;;;;;;;;;;1746137;28;20230;-59
2023/03/24 00:53:00;;;;;;;0.00;0.00;;;;;;;;;;1744160;28;20207;-59
2023/03/24 00:53:56;;;;;;;0.00;0.00;;;;;;;;;;1739057;28;20288;-59
2023/03/24 00:54:49;;;;;;;0.00;0.00;;;;;;;;;;1744616;28;20212;-60
2023/03/24 00:55:40;;;;;;;0.00;0.00;;;;;;;;;;1742403;28;20243;-60
2023/03/24 00:56:33;;;;;;;0.00;0.00;;;;;;;;;;1742141;28;20215;-59
2023/03/24 00:57:25;;;;;;;0.00;0.00;;;;;;;;;;1741465;28;20618;-60
2023/03/24 00:58:19;;;;;;;0.00;0.00;;;;;;;;;;1746237;28;20253;-60
2023/03/24 00:59:12;;;;;;;0.00;0.00;;;;;;;;;;1742302;28;20892;-60
2023/03/24 01:00:11;;;;;;;0.00;0.00;;;;;;;;;;1739336;28;20226;-60
2023/03/24 01:01:03;;;;;;;0.00;0.00;;;;;;;;;;1737042;28;20288;-60
2023/03/24 01:01:55;;;;;;;0.00;0.00;;;;;;;;;;1745730;28;20202;-60
2023/03/24 01:02:47;;;;;;;0.00;0.00;;;;;;;;;;1740658;28;20215;-60
2023/03/24 01:03:49;;;;;;;0.00;0.00;;;;;;;;;;1743991;28;20333;-60
2023/03/24 01:04:40;;;;;;;0.00;0.00;;;;;;;;;;1739610;28;20204;-60
2023/03/24 01:05:32;;;;;;;0.00;0.00;;;;;;;;;;1740058;28;20291;-60
2023/03/24 01:06:23;;;;;;;0.00;0.00;;;;;;;;;;1743683;28;20234;-60
2023/03/24 01:07:16;;;;;;;0.00;0.00;;;;;;;;;;1737597;28;20203;-60
2023/03/24 01:08:09;;;;;;;0.00;0.00;;;;;;;;;;1732803;28;20354;-60
2023/03/24 01:09:01;;;;;;;0.00;0.00;;;;;;;;;;1738531;28;20693;-60
2023/03/24 01:09:56;;;;;;;0.00;0.00;;;;;;;;;;1745382;28;20210;-60
2023/03/24 01:10:52;;;;;;;0.00;0.00;;;;;;;;;;1741512;28;21995;-60
2023/03/24 01:11:43;;;;;;;0.00;0.00;;;;;;;;;;1741149;28;20212;-60
2023/03/24 01:12:37;;;;;;;0.00;0.00;;;;;;;;;;1746127;28;20211;-60
2023/03/24 01:13:29;;;;;;;0.00;0.00;;;;;;;;;;1745681;28;20281;-60
2023/03/24 01:14:21;;;;;;;0.00;0.00;;;;;;;;;;1745552;28;20207;-60
2023/03/24 01:15:13;;;;;;;0.00;0.00;;;;;;;;;;1745104;28;20260;-60
2023/03/24 01:16:06;;;;;;;0.00;0.00;;;;;;;;;;1742236;28;20392;-60
2023/03/24 01:16:57;;;;;;;0.00;0.00;;;;;;;;;;1745845;28;20570;-60
2023/03/24 01:17:49;;;;;;;0.00;0.00;;;;;;;;;;1745406;28;20233;-59
2023/03/24 01:18:41;;;;;;;0.00;0.00;;;;;;;;;;1741380;28;20264;-59
2023/03/24 01:19:33;;;;;;;0.00;0.00;;;;;;;;;;1742191;28;20231;-60
2023/03/24 01:20:24;;;;;;;0.00;0.00;;;;;;;;;;1743997;28;20218;-60
2023/03/24 01:21:17;;;;;;;0.00;0.00;;;;;;;;;;1744306;28;20207;-60
2023/03/24 01:22:08;;;;;;;0.00;0.00;;;;;;;;;;1738908;28;20211;-60
2023/03/24 01:23:01;;;;;;;0.00;0.00;;;;;;;;;;1745538;28;20207;-60
2023/03/24 01:23:52;;;;;;;0.00;0.00;;;;;;;;;;1744777;28;20813;-60
2023/03/24 01:24:44;;;;;;;0.00;0.00;;;;;;;;;;1734082;28;20547;-60
2023/03/24 01:25:36;;;;;;;0.00;0.00;;;;;;;;;;1733987;28;20281;-59
2023/03/24 01:26:28;;;;;;;0.00;0.00;;;;;;;;;;1738948;28;20203;-60
2023/03/24 01:27:19;;;;;;;0.00;0.00;;;;;;;;;;1740671;28;20211;-60
2023/03/24 01:28:13;;;;;;;0.00;0.00;;;;;;;;;;1738744;28;20604;-60
2023/03/24 01:29:04;;;;;;;0.00;0.00;;;;;;;;;;1732141;28;20207;-60
2023/03/24 01:29:58;;;;;;;0.00;0.00;;;;;;;;;;1733024;28;20255;-60
2023/03/24 01:30:50;;;;;;;0.00;0.00;;;;;;;;;;1742329;28;20299;-60
2023/03/24 01:31:42;;;;;;;0.00;0.00;;;;;;;;;;1746284;28;20582;-60
2023/03/24 01:32:33;;;;;;;0.00;0.00;;;;;;;;;;1745272;28;20226;-60
2023/03/24 01:33:25;;;;;;;0.00;0.00;;;;;;;;;;1745569;28;20658;-60
2023/03/24 01:34:16;;;;;;;0.00;0.00;;;;;;;;;;1745166;28;20222;-60
2023/03/24 01:35:08;;;;;;;0.00;0.00;;;;;;;;;;1745694;28;20215;-59
2023/03/24 01:35:59;;;;;;;0.00;0.00;;;;;;;;;;1743451;28;20321;-59
2023/03/24 01:36:51;;;;;;;0.00;0.00;;;;;;;;;;1745286;28;20470;-59
2023/03/24 07:55:38;;;;;;;0.00;0.00;;;;;;;;;;1724564;28;20752;-61
2023/03/24 07:56:29;;;;;;;0.00;0.00;;;;;;;;;;1732940;28;20208;-61
2023/03/24 07:57:21;;;;;;;0.00;0.00;;;;;;;;;;1737396;28;20294;-62
2023/03/24 07:58:13;;;;;;;0.00;0.00;;;;;;;;;;1736165;28;20211;-62
2023/03/24 07:59:05;;;;;;;0.00;0.00;;;;;;;;;;1737023;28;20208;-62
2023/03/24 07:59:56;;;;;;;0.00;0.00;;;;;;;;;;1738046;28;20223;-62
2023/03/24 08:00:48;;;;;;;0.00;0.00;;;;;;;;;;1727553;28;20246;-61
2023/03/24 08:01:39;;;;;;;0.00;0.00;;;;;;;;;;1730358;28;20262;-61
2023/03/24 08:02:31;;;;;;;0.00;0.00;;;;;;;;;;1729148;28;20207;-60
2023/03/24 08:03:24;;;;;;;0.00;0.00;;;;;;;;;;1729675;28;20262;-61
2023/03/24 08:04:15;;;;;;;0.00;0.00;;;;;;;;;;1738201;28;20775;-61
2023/03/24 08:05:08;;;;;;;0.00;0.00;;;;;;;;;;1738791;28;20200;-60
2023/03/24 08:05:59;;;;;;;0.00;0.00;;;;;;;;;;1729910;28;20239;-61
2023/03/24 08:06:52;;;;;;;0.00;0.00;;;;;;;;;;1731996;28;20251;-61
2023/03/24 08:07:44;;;;;;;0.00;0.00;;;;;;;;;;1733100;28;20639;-61
2023/03/24 08:08:36;;;;;;;0.00;0.00;;;;;;;;;;1736237;28;20215;-61
2023/03/24 08:09:27;;;;;;;0.00;0.00;;;;;;;;;;1738324;28;20272;-60
2023/03/24 08:10:20;;;;;;;0.00;0.00;;;;;;;;;;1737137;28;20199;-60
2023/03/24 08:11:12;;;;;;;0.00;0.00;;;;;;;;;;1738063;28;20219;-60
2023/03/24 08:12:04;;;;;;;0.00;0.00;;;;;;;;;;1739120;28;20208;-59
2023/03/24 08:12:56;;;;;;;0.00;0.00;;;;;;;;;;1732386;28;20625;-60
2023/03/24 08:13:48;;;;;;;0.00;0.00;;;;;;;;;;1738118;28;20234;-60
2023/03/24 08:14:39;;;;;;;0.00;0.00;;;;;;;;;;1731436;28;20719;-61
2023/03/24 08:15:31;;;;;;;0.00;0.00;;;;;;;;;;1732978;28;20785;-59
2023/03/24 08:16:22;;;;;;;0.00;0.00;;;;;;;;;;1738760;28;20718;-61
2023/03/24 08:17:14;;;;;;;0.00;0.00;;;;;;;;;;1736947;28;20208;-60
2023/03/24 08:18:05;;;;;;;0.00;0.00;;;;;;;;;;1725421;28;20258;-60
2023/03/24 08:18:58;;;;;;;0.00;0.00;;;;;;;;;;1738459;28;20261;-61
2023/03/24 08:19:49;;;;;;;0.00;0.00;;;;;;;;;;1738889;28;20261;-62
2023/03/24 08:20:41;;;;;;;0.00;0.00;;;;;;;;;;1735951;28;20686;-60
2023/03/24 08:21:32;;;;;;;0.00;0.00;;;;;;;;;;1735000;28;20346;-61
2023/03/24 08:22:24;;;;;;;0.00;0.00;;;;;;;;;;1730241;28;20204;-60
2023/03/24 08:23:15;;;;;;;0.00;0.00;;;;;;;;;;1727647;28;20316;-61
2023/03/24 08:24:07;;;;;;;0.00;0.00;;;;;;;;;;1738008;28;20232;-61
2023/03/24 08:24:58;;;;;;;0.00;0.00;;;;;;;;;;1736314;28;20674;-61
2023/03/24 08:25:50;;;;;;;0.00;0.00;;;;;;;;;;1727327;28;20655;-61
2023/03/24 08:26:45;;;;;;;0.00;0.00;;;;;;;;;;1734942;28;20218;-61
2023/03/24 08:27:36;;;;;;;0.00;0.00;;;;;;;;;;1738215;28;20602;-61
2023/03/24 08:28:28;;;;;;;0.00;0.00;;;;;;;;;;1738809;28;20659;-61
2023/03/24 08:29:19;;;;;;;0.00;0.00;;;;;;;;;;1735289;28;20693;-61
2023/03/24 08:30:14;;;;;;;0.00;0.00;;;;;;;;;;1732406;28;20200;-61
2023/03/24 08:31:05;;;;;;;0.00;0.00;;;;;;;;;;1736797;28;20243;-59
2023/03/24 08:31:57;;;;;;;0.00;0.00;;;;;;;;;;1738937;28;20648;-61
2023/03/24 08:32:49;;;;;;;0.00;0.00;;;;;;;;;;1738416;28;20264;-60
2023/03/24 08:33:41;;;;;;;0.00;0.00;;;;;;;;;;1738655;28;20346;-61
2023/03/24 08:34:32;;;;;;;0.00;0.00;;;;;;;;;;1738286;28;20215;-60
2023/03/24 08:35:25;;;;;;;0.00;0.00;;;;;;;;;;1733965;28;20213;-60
2023/03/24 08:36:16;;;;;;;0.00;0.00;;;;;;;;;;1728227;28;20235;-61
2023/03/24 08:37:08;;;;;;;0.00;0.00;;;;;;;;;;1738922;28;20677;-60
2023/03/24 08:38:00;;;;;;;0.00;0.00;;;;;;;;;;1732482;28;20281;-60
2023/03/24 08:38:53;;;;;;;0.00;0.00;;;;;;;;;;1731841;28;20208;-58
2023/03/24 08:39:44;;;;;;;0.00;0.00;;;;;;;;;;1736793;28;20247;-61
2023/03/24 08:40:37;;;;;;;0.00;0.00;;;;;;;;;;1736212;28;20235;-60
2023/03/24 08:41:33;;;;;;;0.00;0.00;;;;;;;;;;1735475;28;20242;-60
2023/03/24 08:42:26;;;;;;;0.00;0.00;;;;;;;;;;1733498;28;20204;-60
2023/03/24 08:43:19;;;;;;;0.00;0.00;;;;;;;;;;1736996;28;20211;-59
2023/03/24 08:44:11;;;;;;;0.00;0.00;;;;;;;;;;1731039;28;20771;-60
2023/03/24 08:45:02;;;;;;;0.00;0.00;;;;;;;;;;1738966;28;20215;-61
2023/03/24 08:45:54;;;;;;;0.00;0.00;;;;;;;;;;1727662;28;20246;-60
2023/03/24 08:46:45;;;;;;;0.00;0.00;;;;;;;;;;1735687;28;20547;-60
2023/03/24 08:47:37;;;;;;;0.00;0.00;;;;;;;;;;1736054;28;20269;-61
2023/03/24 08:48:31;;;;;;;0.00;0.00;;;;;;;;;;1734922;28;20268;-61
2023/03/24 08:49:22;;;;;;;0.00;0.00;;;;;;;;;;1735608;28;20689;-61
2023/03/24 08:50:14;;;;;;;0.00;0.00;;;;;;;;;;1729781;28;20208;-61
2023/03/24 08:51:09;;;;;;;0.00;0.00;;;;;;;;;;1728040;28;20270;-59
2023/03/24 08:52:01;;;;;;;0.00;0.00;;;;;;;;;;1732267;28;20583;-60
2023/03/24 08:52:52;;;;;;;0.00;0.00;;;;;;;;;;1737522;28;20219;-60
2023/03/24 08:53:44;;;;;;;0.00;0.00;;;;;;;;;;1738729;28;20231;-61
2023/03/24 08:54:35;;;;;;;0.00;0.00;;;;;;;;;;1737071;28;20238;-61
2023/03/24 08:55:28;;;;;;;0.00;0.00;;;;;;;;;;1731250;28;20622;-61
2023/03/24 08:56:19;;;;;;;0.00;0.00;;;;;;;;;;1733051;28;20196;-61
2023/03/24 08:57:11;;;;;;;0.00;0.00;;;;;;;;;;1739430;28;20203;-60
2023/03/24 08:58:03;;;;;;;0.10;0.10;;;;;;;;;;1739878;28;20716;-61
2023/03/24 08:58:56;;;;;;;0.00;0.00;;;;;;;;;;1732365;28;20216;-61
2023/03/24 08:59:47;;;;;;;0.00;0.00;;;;;;;;;;1737419;28;20576;-61
2023/03/24 09:00:39;;;;;;;0.00;0.00;;;;;;;;;;1736504;28;20334;-60
2023/03/24 09:01:32;;;;;;;0.00;0.00;;;;;;;;;;1739262;28;20637;-61
2023/03/24 09:02:25;;;;;;;0.00;0.00;;;;;;;;;;1738628;28;20574;-61
2023/03/24 09:03:20;;;;;;;0.00;0.00;;;;;;;;;;1739235;28;20215;-61
2023/03/24 09:04:12;;;;;;;0.00;0.00;;;;;;;;;;1737993;28;20202;-59
2023/03/24 09:05:04;;;;;;;0.00;0.00;;;;;;;;;;1734758;28;20661;-61
2023/03/24 09:05:57;;;;;;;0.00;0.00;;;;;;;;;;1734448;28;20245;-61
2023/03/24 09:06:48;;;;;;;0.00;0.00;;;;;;;;;;1732398;28;20710;-61
2023/03/24 09:07:40;;;;;;;0.00;0.00;;;;;;;;;;1732792;28;20212;-61
2023/03/24 09:08:31;;;;;;;0.00;0.00;;;;;;;;;;1735348;28;20648;-61
2023/03/24 09:09:23;;;;;;;0.00;0.00;;;;;;;;;;1734463;28;20212;-61
2023/03/24 09:10:14;;;;;;;0.00;0.00;;;;;;;;;;1726574;28;20688;-61
2023/03/24 09:11:07;;;;;;;0.00;0.00;;;;;;;;;;1738255;28;20203;-61
2023/03/24 09:11:58;;;;;;;0.00;0.00;;;;;;;;;;1732585;28;20242;-61
2023/03/24 09:12:50;;;;;;;0.00;0.00;;;;;;;;;;1726791;28;20680;-61
2023/03/24 09:13:42;;;;;;;0.00;0.00;;;;;;;;;;1734490;28;20231;-61
2023/03/24 09:14:34;;;;;;;0.00;0.00;;;;;;;;;;1737667;28;20222;-61
2023/03/24 09:15:25;;;;;;;0.00;0.00;;;;;;;;;;1727866;28;20939;-61
2023/03/24 09:16:18;;;;;;;0.00;0.00;;;;;;;;;;1727778;28;20219;-61
2023/03/24 09:17:09;;;;;;;0.00;0.00;;;;;;;;;;1731850;28;20247;-60
2023/03/24 09:18:01;;;;;;;0.00;0.00;;;;;;;;;;1726896;28;20239;-60
2023/03/24 09:18:52;;;;;;;0.00;0.00;;;;;;;;;;1737110;28;20742;-61
2023/03/24 09:19:44;;;;;;;0.00;0.00;;;;;;;;;;1731980;28;20228;-61
2023/03/24 09:20:35;;;;;;;0.00;0.00;;;;;;;;;;1733214;28;20350;-60
2023/03/24 09:21:27;;;;;;;0.00;0.00;;;;;;;;;;1736294;28;20679;-61
2023/03/24 09:22:18;;;;;;;0.00;0.00;;;;;;;;;;1733240;28;20671;-61
2023/03/24 09:23:11;;;;;;;0.00;0.00;;;;;;;;;;1738896;28;20207;-61
2023/03/24 09:24:02;;;;;;;0.00;0.00;;;;;;;;;;1737653;28;20232;-61
2023/03/24 09:24:54;;;;;;;0.00;0.00;;;;;;;;;;1738059;28;20211;-61
2023/03/24 12:55:03;;;;;;;0.00;0.00;;;;;;;;;;2066487;23;1325327;-61
2023/03/24 12:55:56;;;;;;;0.00;0.00;;;;;;;;;;2087193;23;20229;-60
2023/03/24 12:56:51;;;;;;;0.00;0.00;;;;;;;;;;2087039;23;20181;-59
2023/03/24 12:57:44;;;;;;;0.00;0.00;;;;;;;;;;2087170;23;20178;-59
2023/03/24 12:58:40;;;;;;;0.03;0.03;;;;;;;;;;2087109;23;20535;-59
2023/03/24 12:59:33;;;;;;;0.00;0.00;;;;;;;;;;2087000;23;20168;-59
2023/03/24 13:00:28;;;;;;;0.00;0.00;;;;;;;;;;2085012;23;20213;-60
2023/03/24 13:01:23;;;;;;;0.00;0.00;;;;;;;;;;2087657;23;20665;-59
2023/03/24 13:02:20;;;;;;;0.00;0.00;;;;;;;;;;2087520;23;20640;-59
2023/03/24 13:03:12;;;;;;;0.00;0.00;;;;;;;;;;2087727;23;20224;-59
2023/03/24 13:04:08;;;;;;;0.00;0.00;;;;;;;;;;2086965;23;20202;-59
2023/03/24 13:05:04;;;;;;;0.00;0.00;;;;;;;;;;2087447;23;20632;-59
2023/03/24 13:05:58;;;;;;;0.00;0.00;;;;;;;;;;2084574;23;20214;-59
2023/03/24 13:06:53;;;;;;;0.00;0.00;;;;;;;;;;2086976;23;20525;-59
2023/03/24 13:07:47;;;;;;;0.00;0.00;;;;;;;;;;2087541;23;20245;-59
2023/03/24 13:08:39;;;;;;;0.00;0.00;;;;;;;;;;2087207;23;20269;-59
2023/03/24 13:09:34;;;;;;;0.00;0.00;;;;;;;;;;2087464;23;20257;-59
2023/03/24 13:10:28;;;;;;;0.00;0.00;;;;;;;;;;2084887;23;20177;-60
2023/03/24 13:11:22;;;;;;;0.00;0.00;;;;;;;;;;2087203;23;20223;-59
2023/03/24 13:12:14;;;;;;;0.00;0.00;;;;;;;;;;2087140;23;20298;-60
2023/03/24 13:13:09;;;;;;;0.00;0.00;;;;;;;;;;2087335;23;20182;-59
2023/03/24 13:14:02;;;;;;;0.00;0.00;;;;;;;;;;2087178;23;20263;-60
2023/03/24 13:14:58;;;;;;;0.00;0.00;;;;;;;;;;2087077;23;20184;-60
2023/03/24 13:15:51;;;;;;;0.00;0.00;;;;;;;;;;2084961;23;20599;-59
2023/03/24 13:16:45;;;;;;;0.00;0.00;;;;;;;;;;2087209;23;20181;-58
2023/03/24 13:17:38;;;;;;;0.00;0.00;;;;;;;;;;2087398;23;20185;-59
2023/03/24 13:18:32;;;;;;;0.00;0.00;;;;;;;;;;2087204;23;20180;-59
2023/03/24 13:19:24;;;;;;;0.00;0.00;;;;;;;;;;2087227;23;20254;-60
2023/03/24 13:20:21;;;;;;;0.00;0.00;;;;;;;;;;2084666;23;20184;-61
2023/03/24 13:21:13;;;;;;;0.00;0.00;;;;;;;;;;2087407;23;20173;-60
2023/03/24 13:22:07;;;;;;;0.00;0.00;;;;;;;;;;2087027;23;20181;-60
2023/03/24 13:22:59;;;;;;;0.00;0.00;;;;;;;;;;2087420;23;20186;-60
2023/03/24 13:23:54;;;;;;;0.00;0.00;;;;;;;;;;2087070;23;20227;-59
2023/03/24 13:24:45;;;;;;;0.00;0.00;;;;;;;;;;2087163;23;20507;-61
2023/03/24 13:25:44;;;;;;;0.00;0.00;;;;;;;;;;2084952;23;20609;-59
2023/03/24 13:26:37;;;;;;;0.00;0.00;;;;;;;;;;2087225;23;20495;-59
2023/03/24 13:27:32;;;;;;;0.00;0.00;;;;;;;;;;2087479;23;20269;-60
2023/03/24 13:28:27;;;;;;;0.00;0.00;;;;;;;;;;2087214;23;20184;-60
2023/03/24 13:29:26;;;;;;;0.00;0.00;;;;;;;;;;2086285;23;20724;-59
2023/03/24 13:30:27;;;;;;;0.00;0.00;;;;;;;;;;2085027;23;20228;-60
2023/03/24 13:31:21;;;;;;;0.00;0.00;;;;;;;;;;2087334;23;20165;-60
2023/03/24 13:32:15;;;;;;;0.00;0.00;;;;;;;;;;2087427;23;20187;-60
2023/03/24 13:33:11;;;;;;;0.00;0.00;;;;;;;;;;2087434;23;20197;-60
2023/03/24 13:34:03;;;;;;;0.00;0.00;;;;;;;;;;2086967;23;20502;-58
2023/03/24 13:34:57;;;;;;;0.00;0.00;;;;;;;;;;2087305;23;20216;-59
2023/03/24 13:35:56;;;;;;;0.00;0.00;;;;;;;;;;2084722;23;20590;-60
2023/03/24 13:36:50;;;;;;;0.00;0.00;;;;;;;;;;2087017;23;20221;-60
2023/03/24 13:37:45;;;;;;;0.00;0.00;;;;;;;;;;2087256;23;20263;-60
2023/03/24 13:38:38;;;;;;;0.00;0.00;;;;;;;;;;2087373;23;20262;-60
2023/03/24 13:39:31;;;;;;;0.00;0.00;;;;;;;;;;2087092;23;20189;-58
2023/03/24 13:40:23;;;;;;;0.00;0.00;;;;;;;;;;2085143;23;20486;-59
2023/03/24 13:41:19;;;;;;;0.00;0.00;;;;;;;;;;2087470;23;20167;-60
2023/03/24 13:42:24;;;;;;;0.00;0.00;;;;;;;;;;2087581;23;20179;-60
2023/03/24 13:43:19;;;;;;;0.00;0.00;;;;;;;;;;2087453;23;20165;-59
2023/03/24 13:44:16;;;;;;;0.00;0.00;;;;;;;;;;2087658;23;20211;-60
2023/03/24 13:45:22;;;;;;;0.00;0.00;;;;;;;;;;2087383;23;20219;-59
2023/03/24 13:46:13;;;;;;;0.00;0.00;;;;;;;;;;2095611;23;20221;-59
2023/03/24 13:47:09;;;;;;;0.00;0.00;;;;;;;;;;2097186;23;20191;-60
2023/03/24 13:48:05;;;;;;;0.00;0.00;;;;;;;;;;2097246;23;20317;-60
2023/03/24 13:48:59;;;;;;;0.00;0.00;;;;;;;;;;2096771;23;20248;-60
2023/03/24 13:49:53;;;;;;;0.00;0.00;;;;;;;;;;2097340;23;21074;-60
2023/03/24 13:50:51;;;;;;;0.00;0.00;;;;;;;;;;2094533;23;20241;-60
2023/03/24 13:51:45;;;;;;;0.00;0.00;;;;;;;;;;2097044;23;20216;-59
2023/03/24 13:52:38;;;;;;;0.00;0.00;;;;;;;;;;2097401;23;20191;-59
2023/03/24 13:53:33;;;;;;;0.00;0.00;;;;;;;;;;2097178;23;20196;-59
2023/03/24 13:54:26;;;;;;;0.00;0.00;;;;;;;;;;2097075;23;20668;-59
2023/03/24 13:55:20;;;;;;;0.00;0.00;;;;;;;;;;2104358;23;20206;-61
2023/03/24 13:56:13;;;;;;;0.00;0.00;;;;;;;;;;2107356;23;20167;-59
2023/03/24 13:57:06;;;;;;;0.00;0.00;;;;;;;;;;2108105;23;20179;-60
2023/03/24 13:58:00;;;;;;;0.00;0.00;;;;;;;;;;2107080;23;20402;-60
2023/03/24 13:59:06;;;;;;;0.00;0.00;;;;;;;;;;2106987;23;20582;-60
2023/03/24 14:00:05;;;;;;;0.00;0.00;;;;;;;;;;2107247;23;20170;-59
2023/03/24 14:01:15;;;;;;;0.00;0.00;;;;;;;;;;2104537;23;20216;-59
2023/03/24 14:02:23;;;;;;;0.00;0.00;;;;;;;;;;2107054;23;20166;-60
2023/03/24 14:03:31;;;;;;;0.00;0.00;;;;;;;;;;2107592;23;20185;-59
2023/03/24 14:04:25;;;;;;;0.00;0.00;;;;;;;;;;2107224;23;20224;-59
2023/03/24 14:05:31;;;;;;;0.00;0.00;;;;;;;;;;2107672;23;20202;-60
2023/03/24 14:06:43;;;;;;;0.00;0.00;;;;;;;;;;2106796;23;20496;-60
2023/03/24 14:07:52;;;;;;;0.00;0.00;;;;;;;;;;2107240;23;20158;-60
2023/03/24 14:08:54;;;;;;;0.00;0.00;;;;;;;;;;2106817;23;20166;-59
2023/03/24 14:09:57;;;;;;;0.00;0.00;;;;;;;;;;2107473;23;20178;-60
2023/03/24 14:10:49;;;;;;;0.00;0.00;;;;;;;;;;2104820;23;20547;-61
2023/03/24 14:11:48;;;;;;;0.00;0.00;;;;;;;;;;2107180;23;20551;-62
2023/03/24 14:12:52;;;;;;;0.00;0.00;;;;;;;;;;2107181;23;20249;-62
2023/03/24 14:13:46;;;;;;;0.00;0.00;;;;;;;;;;2107017;23;20203;-62
2023/03/24 14:15:00;;;;;;;0.00;0.00;;;;;;;;;;2107252;23;20796;-62
2023/03/24 14:15:52;;;;;;;0.00;0.00;;;;;;;;;;2104513;23;20814;-63
2023/03/24 14:16:48;;;;;;;0.00;0.00;;;;;;;;;;2106920;23;20162;-64
2023/03/24 14:17:42;;;;;;;0.00;0.00;;;;;;;;;;2106812;23;20162;-63
2023/03/24 14:18:41;;;;;;;0.00;0.00;;;;;;;;;;2107018;23;20177;-64
2023/03/24 14:19:37;;;;;;;0.00;0.00;;;;;;;;;;2104925;23;20674;-62
2023/03/24 14:20:33;;;;;;;0.00;0.00;;;;;;;;;;2104502;23;20162;-63
2023/03/24 14:21:29;;;;;;;0.00;0.00;;;;;;;;;;2105052;23;20170;-62
2023/03/24 14:22:21;;;;;;;0.00;0.00;;;;;;;;;;2107337;23;20167;-62
2023/03/24 14:23:22;;;;;;;0.00;0.00;;;;;;;;;;2107103;23;20647;-62
2023/03/24 14:24:19;;;;;;;0.00;0.00;;;;;;;;;;2107347;23;20189;-63
2023/03/24 14:25:20;;;;;;;0.00;0.00;;;;;;;;;;2105215;23;20272;-63
2023/03/24 14:26:12;;;;;;;0.00;0.00;;;;;;;;;;2106558;23;20283;-63
2023/03/24 14:27:21;;;;;;;0.00;0.00;;;;;;;;;;2107974;23;20181;-63
2023/03/24 14:28:22;;;;;;;0.00;0.00;;;;;;;;;;2108404;23;20618;-62
2023/03/24 14:29:36;;;;;;;0.00;0.00;;;;;;;;;;2107348;23;20813;-62
2023/03/24 14:30:29;;;;;;;0.00;0.00;;;;;;;;;;2104449;23;20629;-62
2023/03/24 14:31:23;;;;;;;0.00;0.00;;;;;;;;;;2106750;23;20166;-63
2023/03/24 14:32:16;;;;;;;0.00;0.00;;;;;;;;;;2108049;23;20186;-63
2023/03/24 14:33:22;;;;;;;0.00;0.00;;;;;;;;;;2107726;23;20695;-63
2023/03/24 14:34:15;;;;;;;0.00;0.00;;;;;;;;;;2108284;23;20166;-63
2023/03/24 14:35:21;;;;;;;0.00;0.00;;;;;;;;;;2107977;23;20670;-62
2023/03/24 14:36:17;;;;;;;0.00;0.00;;;;;;;;;;2105621;23;20663;-62
2023/03/24 14:37:10;;;;;;;0.00;0.00;;;;;;;;;;2107876;23;20258;-63
2023/03/24 14:38:03;;;;;;;0.00;0.00;;;;;;;;;;2107710;23;20183;-63
2023/03/24 14:38:55;;;;;;;0.00;0.00;;;;;;;;;;2107897;23;20201;-63
2023/03/24 14:39:46;;;;;;;0.00;0.00;;;;;;;;;;2107652;23;20181;-63
2023/03/24 14:40:39;;;;;;;0.00;0.00;;;;;;;;;;2105452;23;20611;-63
2023/03/24 14:41:33;;;;;;;0.00;0.00;;;;;;;;;;2107744;23;20512;-63
2023/03/24 14:42:29;;;;;;;0.00;0.00;;;;;;;;;;2107956;23;20182;-62
2023/03/24 14:43:26;;;;;;;0.00;0.00;;;;;;;;;;2108143;23;20185;-61
2023/03/24 14:44:32;;;;;;;0.00;0.00;;;;;;;;;;2107956;23;20166;-61
2023/03/24 14:45:41;;;;;;;0.00;0.00;;;;;;;;;;2103955;23;20238;-61
2023/03/24 14:46:34;;;;;;;0.00;0.00;;;;;;;;;;2107669;23;20563;-61
2023/03/24 14:47:26;;;;;;;0.00;0.00;;;;;;;;;;2107796;23;20186;-62
2023/03/24 14:48:23;;;;;;;0.00;0.00;;;;;;;;;;2107737;23;20182;-61
2023/03/24 14:49:22;;;;;;;0.00;0.00;;;;;;;;;;2107891;23;20213;-62
2023/03/24 14:50:19;;;;;;;0.00;0.00;;;;;;;;;;2106805;23;20166;-62
2023/03/24 14:51:36;;;;;;;0.00;0.00;;;;;;;;;;2106594;23;20209;-62
2023/03/24 14:52:29;;;;;;;0.00;0.00;;;;;;;;;;2080184;23;20164;-61
2023/03/24 14:53:21;;;;;;;0.00;0.00;;;;;;;;;;2108665;23;20165;-62
2023/03/24 14:54:15;;;;;;;0.00;0.00;;;;;;;;;;2109071;23;20678;-61
2023/03/24 14:55:09;;;;;;;0.00;0.00;;;;;;;;;;2107227;23;20217;-61
2023/03/24 14:56:01;;;;;;;0.00;0.00;;;;;;;;;;2104919;23;20205;-61
2023/03/24 14:56:54;;;;;;;0.00;0.00;;;;;;;;;;2106423;23;20185;-62
2023/03/24 14:57:47;;;;;;;0.00;0.00;;;;;;;;;;2107378;23;20233;-62
2023/03/24 14:58:42;;;;;;;0.00;0.00;;;;;;;;;;2107791;23;20205;-62
2023/03/24 14:59:37;;;;;;;0.00;0.00;;;;;;;;;;2108057;23;20827;-62
2023/03/24 15:00:32;;;;;;;0.00;0.00;;;;;;;;;;2105246;23;20173;-61
2023/03/24 15:01:26;;;;;;;0.00;0.00;;;;;;;;;;2107962;23;20169;-61
2023/03/24 15:02:25;;;;;;;0.00;0.00;;;;;;;;;;2108107;23;20186;-62
2023/03/24 15:03:19;;;;;;;0.00;0.00;;;;;;;;;;2108193;23;20619;-61
2023/03/24 15:04:12;;;;;;;0.00;0.00;;;;;;;;;;2108133;23;20679;-61
2023/03/24 15:05:22;;;;;;;0.00;0.00;;;;;;;;;;2108208;23;20271;-61
2023/03/24 15:06:14;;;;;;;0.00;0.00;;;;;;;;;;2105815;23;20555;-61
2023/03/24 15:07:06;;;;;;;0.00;0.00;;;;;;;;;;2108017;23;20184;-61
2023/03/24 15:07:59;;;;;;;0.00;0.00;;;;;;;;;;2108014;23;20190;-62
2023/03/24 15:08:52;;;;;;;0.00;0.00;;;;;;;;;;2107723;23;20181;-61
2023/03/24 15:09:48;;;;;;;0.00;0.00;;;;;;;;;;2107573;23;20182;-62
2023/03/24 15:10:42;;;;;;;0.00;0.00;;;;;;;;;;2105927;23;20209;-62